createdAt,value
2023-04-04T00:00:02.272Z,2.53
2023-04-04T00:04:05.938Z,1.63
2023-04-04T00:08:10.740Z,2.10
2023-04-04T00:12:14.246Z,3.27
2023-04-04T00:16:17.632Z,4.87
2023-04-04T00:20:21.103Z,3.30
2023-04-04T00:24:25.776Z,1.67
2023-04-04T00:28:29.137Z,2.37
2023-04-04T00:32:32.644Z,6.60
2023-04-04T00:36:35.919Z,6.20
2023-04-04T00:40:44.558Z,2.10
2023-04-04T00:44:47.810Z,2.47
2023-04-04T00:48:51.672Z,2.97
2023-04-04T00:52:54.902Z,1.97
2023-04-04T00:57:00.179Z,3.60
2023-04-04T01:01:03.638Z,2.10
2023-04-04T01:05:09.645Z,3.53
2023-04-04T01:09:13.372Z,3.90
2023-04-04T01:13:18.773Z,3.77
2023-04-04T01:17:22.914Z,3.23
2023-04-04T01:21:27.643Z,4.73
2023-04-04T01:25:34.067Z,1.80
2023-04-04T01:29:37.467Z,1.73
2023-04-04T01:33:47.432Z,2.57
2023-04-04T01:37:59.706Z,3.83
2023-04-04T01:42:05.360Z,1.90
2023-04-04T01:46:08.681Z,4.17
2023-04-04T01:50:13.003Z,2.63
2023-04-04T01:54:17.091Z,2.33
2023-04-04T01:58:22.340Z,2.33
2023-04-04T02:02:25.728Z,2.73
2023-04-04T02:06:30.391Z,4.10
2023-04-04T02:10:33.647Z,2.30
2023-04-04T02:14:39.948Z,3.47
2023-04-04T02:18:43.371Z,6.70
2023-04-04T02:22:52.762Z,3.33
2023-04-04T02:26:56.294Z,3.03
2023-04-04T02:31:03.412Z,4.13
2023-04-04T02:35:07.826Z,3.90
2023-04-04T02:39:11.087Z,4.30
2023-04-04T02:43:14.484Z,3.23
2023-04-04T02:47:19.175Z,2.40
2023-04-04T02:51:22.531Z,3.40
2023-04-04T02:55:26.057Z,2.77
2023-04-04T02:59:29.848Z,1.80
2023-04-04T03:03:34.653Z,2.67
2023-04-04T03:07:38.346Z,2.77
2023-04-04T03:11:41.734Z,5.07
2023-04-04T03:15:47.446Z,2.43
2023-04-04T03:19:52.229Z,4.10
2023-04-04T03:23:55.745Z,3.47
2023-04-04T03:27:59.075Z,3.37
2023-04-04T03:32:03.961Z,3.30
2023-04-04T03:36:13.585Z,2.53
2023-04-04T03:40:17.304Z,2.50
2023-04-04T03:44:21.545Z,3.50
2023-04-04T03:48:25.095Z,3.20
2023-04-04T03:52:30.266Z,2.40
2023-04-04T03:56:34.064Z,3.77
2023-04-04T04:00:37.912Z,3.00
2023-04-04T04:04:41.931Z,3.07
2023-04-04T04:08:47.581Z,3.37
2023-04-04T04:12:51.190Z,3.93
2023-04-04T04:16:55.278Z,2.60
2023-04-04T04:21:01.969Z,5.20
2023-04-04T04:25:07.595Z,2.33
2023-04-04T04:29:11.226Z,3.57
2023-04-04T04:33:14.846Z,4.10
2023-04-04T04:37:18.786Z,5.03
2023-04-04T04:41:23.994Z,4.20
2023-04-04T04:45:27.997Z,3.03
2023-04-04T04:49:31.760Z,6.63
2023-04-04T04:53:36.110Z,5.10
2023-04-04T04:57:41.085Z,7.13
2023-04-04T05:01:44.960Z,9.53
2023-04-04T05:05:48.532Z,6.10
2023-04-04T05:09:53.365Z,7.97
2023-04-04T05:13:59.881Z,5.30
2023-04-04T05:18:03.834Z,7.43
2023-04-04T05:22:08.618Z,4.93
2023-04-04T05:26:12.228Z,4.43
2023-04-04T05:34:45.259Z,12.87
2023-04-04T05:38:48.702Z,3.20
2023-04-04T05:42:59.021Z,5.50
2023-04-04T05:47:02.576Z,7.10
2023-04-04T05:51:07.264Z,16.33
2023-04-04T05:55:11.064Z,19.87
2023-04-04T05:59:14.418Z,10.53
2023-04-04T06:03:20.389Z,3.83
2023-04-04T06:07:26.436Z,3.93
2023-04-04T06:11:30.170Z,4.53
2023-04-04T06:15:33.481Z,2.90
2023-04-04T06:19:36.707Z,4.57
2023-04-04T06:23:41.602Z,3.70
2023-04-04T06:27:44.820Z,2.87
2023-04-04T06:31:48.085Z,4.70
2023-04-04T06:35:52.608Z,4.00
2023-04-04T06:39:57.221Z,4.70
2023-04-04T06:44:01.585Z,8.33
2023-04-04T06:48:04.982Z,3.47
2023-04-04T06:52:08.415Z,3.23
2023-04-04T06:56:13.133Z,2.37
2023-04-04T07:00:17.693Z,3.40
2023-04-04T07:04:21.683Z,3.40
2023-04-04T07:08:24.911Z,4.17
2023-04-04T07:12:29.777Z,3.17
2023-04-04T07:16:33.151Z,5.90
2023-04-04T07:20:37.957Z,2.80
2023-04-04T07:24:45.738Z,2.70
2023-04-04T07:28:50.393Z,3.23
2023-04-04T07:32:59.233Z,3.63
2023-04-04T07:37:03.031Z,2.30
2023-04-04T07:41:06.557Z,6.13
2023-04-04T07:45:12.141Z,2.17
2023-04-04T07:49:15.401Z,2.40
2023-04-04T07:53:19.820Z,3.33
2023-04-04T07:57:23.918Z,4.80
2023-04-04T08:01:28.762Z,2.17
2023-04-04T08:05:32.111Z,2.40
2023-04-04T08:09:36.646Z,3.20
2023-04-04T08:13:40.042Z,2.73
2023-04-04T08:17:46.216Z,2.37
2023-04-04T08:21:50.302Z,9.33
2023-04-04T08:25:54.060Z,2.30
2023-04-04T08:29:58.539Z,5.53
2023-04-04T08:34:03.890Z,7.57
2023-04-04T08:38:10.588Z,3.23
2023-04-04T08:42:17.115Z,6.53
2023-04-04T08:46:21.014Z,2.40
2023-04-04T08:50:26.267Z,3.93
2023-04-04T08:54:31.853Z,2.90
2023-04-04T08:58:35.253Z,2.10
2023-04-04T09:02:44.564Z,2.17
2023-04-04T09:06:50.103Z,8.20
2023-04-04T09:10:54.176Z,3.87
2023-04-04T09:15:00.098Z,3.80
2023-04-04T09:19:03.547Z,1.80
2023-04-04T09:23:11.662Z,3.30
2023-04-04T09:27:17.076Z,3.80
2023-04-04T09:31:20.358Z,5.90
2023-04-04T09:35:23.998Z,3.27
2023-04-04T09:39:28.912Z,3.00
2023-04-04T09:43:33.912Z,2.90
2023-04-04T09:47:42.869Z,3.50
2023-04-04T09:51:50.322Z,4.07
2023-04-04T09:55:56.599Z,2.87
2023-04-04T10:00:01.096Z,1.93
2023-04-04T10:04:06.000Z,4.03
2023-04-04T10:08:17.416Z,1.77
2023-04-04T10:12:26.245Z,3.73
2023-04-04T10:16:33.483Z,2.20
2023-04-04T10:20:37.334Z,2.33
2023-04-04T10:24:41.241Z,2.17
2023-04-04T10:28:46.818Z,2.00
2023-04-04T10:33:01.018Z,2.13
2023-04-04T10:37:12.766Z,2.80
2023-04-04T10:41:17.537Z,1.90
2023-04-04T10:45:22.924Z,4.47
2023-04-04T10:49:26.792Z,3.03
2023-04-04T10:53:30.294Z,3.10
2023-04-04T10:57:34.706Z,1.63
2023-04-04T11:01:50.643Z,6.40
2023-04-04T11:06:00.752Z,3.53
2023-04-04T11:10:16.387Z,2.77
2023-04-04T11:14:30.586Z,2.50
2023-04-04T11:18:53.390Z,2.67
2023-04-04T11:23:05.355Z,2.57
2023-04-04T11:27:08.854Z,4.90
2023-04-04T11:31:29.288Z,2.43
2023-04-04T11:35:34.589Z,2.20
2023-04-04T11:39:50.778Z,1.90
2023-04-04T11:43:54.597Z,1.53
2023-04-04T11:47:59.594Z,2.03
2023-04-04T11:52:09.121Z,2.30
2023-04-04T11:56:16.832Z,2.17
2023-04-04T12:00:33.200Z,1.87
2023-04-04T12:04:38.974Z,3.73
2023-04-04T12:08:45.740Z,1.60
2023-04-04T12:12:50.072Z,3.23
2023-04-04T12:16:55.816Z,4.23
2023-04-04T12:20:59.059Z,6.73
2023-04-04T12:25:06.192Z,2.50
2023-04-04T12:29:10.426Z,2.50
2023-04-04T12:33:14.347Z,2.97
2023-04-04T12:37:19.586Z,2.27
2023-04-04T12:41:24.402Z,2.60
2023-04-04T12:45:28.071Z,2.63
2023-04-04T12:49:32.495Z,2.23
2023-04-04T12:53:51.789Z,3.00
2023-04-04T12:57:57.210Z,2.73
2023-04-04T13:02:02.585Z,1.63
2023-04-04T13:06:13.586Z,1.80
2023-04-04T13:10:18.797Z,2.93
2023-04-04T13:14:24.069Z,2.00
2023-04-04T13:18:33.435Z,3.43
2023-04-04T13:22:37.938Z,2.20
2023-04-04T13:26:41.410Z,1.60
2023-04-04T13:30:49.666Z,1.57
2023-04-04T13:34:53.384Z,1.73
2023-04-04T13:38:57.187Z,2.97
2023-04-04T13:43:00.456Z,2.60
2023-04-04T13:47:05.545Z,2.30
2023-04-04T13:51:08.813Z,1.70
2023-04-04T13:55:12.804Z,3.20
2023-04-04T13:59:16.699Z,2.83
2023-04-04T14:03:22.941Z,2.90
2023-04-04T14:07:26.309Z,2.20
2023-04-04T14:11:31.159Z,1.73
2023-04-04T14:15:34.717Z,2.80
2023-04-04T14:19:40.208Z,1.70
2023-04-04T14:23:43.652Z,2.60
2023-04-04T14:27:46.891Z,2.67
2023-04-04T14:31:50.219Z,4.40
2023-04-04T14:35:55.054Z,5.20
2023-04-04T14:39:58.440Z,1.93
2023-04-04T14:44:02.597Z,2.40
2023-04-04T14:48:06.028Z,1.80
2023-04-04T14:52:10.836Z,4.90
2023-04-04T14:56:14.128Z,2.50
2023-04-04T15:00:20.735Z,2.13
2023-04-04T15:04:24.358Z,2.83
2023-04-04T15:08:29.272Z,1.80
2023-04-04T15:12:32.586Z,2.27
2023-04-04T15:16:36.268Z,3.10
2023-04-04T15:20:40.467Z,2.57
2023-04-04T15:24:45.262Z,1.40
2023-04-04T15:28:49.442Z,3.60
2023-04-04T15:32:54.308Z,2.07
2023-04-04T15:36:59.815Z,1.73
2023-04-04T15:41:08.242Z,2.20
2023-04-04T15:45:13.575Z,3.33
2023-04-04T15:49:16.949Z,2.73
2023-04-04T15:53:20.350Z,1.90
2023-04-04T15:57:25.162Z,2.93
2023-04-04T16:01:28.699Z,2.57
2023-04-04T16:05:32.032Z,4.50
2023-04-04T16:09:36.264Z,2.63
2023-04-04T16:13:47.486Z,2.07
2023-04-04T16:17:52.439Z,2.87
2023-04-04T16:21:56.054Z,2.17
2023-04-04T16:25:59.318Z,4.00
2023-04-04T16:30:04.386Z,4.27
2023-04-04T16:34:07.926Z,11.43
2023-04-04T16:38:11.242Z,3.87
2023-04-04T16:42:19.285Z,5.10
2023-04-04T16:46:23.886Z,4.40
2023-04-04T16:50:27.703Z,4.60
2023-04-04T16:54:31.307Z,3.63
2023-04-04T16:58:34.980Z,3.60
2023-04-04T17:02:45.653Z,2.33
2023-04-04T17:06:49.746Z,3.20
2023-04-04T17:10:53.484Z,2.40
2023-04-04T17:14:56.890Z,2.50
2023-04-04T17:19:03.058Z,5.00
2023-04-04T17:23:06.679Z,2.60
2023-04-04T17:27:10.989Z,5.73
2023-04-04T17:31:15.818Z,24.07
2023-04-04T17:35:20.696Z,2.77
2023-04-04T17:39:25.350Z,4.07
2023-04-04T17:43:30.243Z,4.77
2023-04-04T17:47:34.041Z,4.83
2023-04-04T17:51:38.899Z,3.20
2023-04-04T17:55:43.113Z,4.10
2023-04-04T17:59:46.445Z,4.47
2023-04-04T18:03:50.915Z,6.57
2023-04-04T18:07:56.162Z,5.80
2023-04-04T18:12:00.838Z,5.20
2023-04-04T18:16:05.944Z,3.23
2023-04-04T18:20:12.625Z,5.50
2023-04-04T18:24:21.737Z,8.30
2023-04-04T18:28:25.094Z,5.70
2023-04-04T18:32:28.595Z,4.90
2023-04-04T18:36:32.469Z,5.80
2023-04-04T18:40:37.110Z,7.50
2023-04-04T18:44:41.774Z,8.40
2023-04-04T18:48:48.287Z,12.43
2023-04-04T18:52:57.700Z,13.70
2023-04-04T18:57:02.881Z,12.90
2023-04-04T19:01:07.156Z,13.93
2023-04-04T19:05:14.429Z,9.77
2023-04-04T19:09:22.375Z,12.17
2023-04-04T19:13:28.567Z,20.70
2023-04-04T19:17:33.104Z,23.80
2023-04-04T19:21:38.393Z,13.83
2023-04-04T19:25:44.067Z,9.43
2023-04-04T19:29:49.601Z,5.90
2023-04-04T19:33:55.832Z,4.63
2023-04-04T19:38:00.002Z,5.30
2023-04-04T19:42:05.168Z,4.30
2023-04-04T19:46:12.301Z,3.93
2023-04-04T19:50:36.179Z,5.97
2023-04-04T19:54:43.291Z,6.07
2023-04-04T19:58:54.475Z,4.57
2023-04-04T20:03:07.773Z,3.33
2023-04-04T20:07:13.307Z,6.83
2023-04-04T20:11:20.709Z,3.50
2023-04-04T20:16:01.498Z,8.00
2023-04-04T20:20:12.401Z,6.30
2023-04-04T20:24:19.198Z,9.27
2023-04-04T20:28:26.011Z,3.80
2023-04-04T20:32:30.855Z,3.80
2023-04-04T20:36:43.099Z,5.50
2023-04-04T20:40:48.055Z,6.43
2023-04-04T20:44:51.623Z,6.10
2023-04-04T20:48:59.346Z,5.90
2023-04-04T20:53:06.157Z,11.93
2023-04-04T20:57:10.087Z,12.80
2023-04-04T21:01:14.481Z,8.50
2023-04-04T21:05:27.820Z,9.37
2023-04-04T21:09:32.679Z,5.77
2023-04-04T21:13:38.268Z,5.93
2023-04-04T21:17:41.676Z,6.53
2023-04-04T21:21:45.233Z,7.97
2023-04-04T21:25:49.960Z,10.07
2023-04-04T21:29:53.921Z,8.93
2023-04-04T21:34:02.960Z,5.43
2023-04-04T21:38:07.928Z,4.27
2023-04-04T21:42:12.539Z,4.57
2023-04-04T21:46:15.882Z,5.30
2023-04-04T21:50:19.285Z,5.20
2023-04-04T21:54:22.723Z,5.30
2023-04-04T21:58:27.426Z,4.37
2023-04-04T22:02:31.173Z,4.87
2023-04-04T22:06:34.959Z,4.20
2023-04-04T22:10:45.600Z,7.37
2023-04-04T22:14:50.604Z,10.40
2023-04-04T22:18:54.093Z,4.87
2023-04-04T22:22:59.606Z,3.40
2023-04-04T22:27:04.200Z,4.07
2023-04-04T22:31:10.842Z,6.80
2023-04-04T22:35:15.054Z,3.40
2023-04-04T22:39:20.808Z,7.40
2023-04-04T22:43:25.720Z,5.90
2023-04-04T22:47:30.809Z,5.83
2023-04-04T22:51:43.721Z,5.80
2023-04-04T22:55:47.828Z,5.33
2023-04-04T22:59:51.677Z,6.10
2023-04-04T23:03:56.424Z,7.47
2023-04-04T23:08:03.632Z,4.60
2023-04-04T23:12:07.342Z,4.90
2023-04-04T23:16:10.904Z,5.27
2023-04-04T23:20:16.074Z,4.07
2023-04-04T23:24:19.800Z,3.73
2023-04-04T23:28:23.239Z,4.13
2023-04-04T23:32:26.495Z,4.70
2023-04-04T23:36:32.034Z,2.80
2023-04-04T23:40:35.552Z,5.30
2023-04-04T23:44:40.986Z,5.67
2023-04-04T23:48:44.653Z,4.23
2023-04-04T23:52:49.434Z,5.93
2023-04-04T23:56:53.465Z,6.70
